Time;durP1;ratioP1;P1;durP2;ratioP2;P2;SDS_P1;SDS_P2;PMS_P1;PMS_P2;Temp;Humidity;BMP_temperature;BMP_pressure;BME280_temperature;BME280_humidity;BME280_pressure;Samples;Min_cycle;Max_cycle;Signal;HPM_P1;HPM_P2
2021/07/22 00:01:07;;;;;;;20.55;18.55;;;17.10;76.30;;;;;;5055664;29;20048;-72
2021/07/22 00:03:39;;;;;;;20.88;18.88;;;17.00;76.40;;;;;;5052764;29;20055;-71
2021/07/22 00:06:26;;;;;;;21.38;18.92;;;17.00;76.70;;;;;;5049935;29;20149;-72
2021/07/22 00:08:58;;;;;;;21.42;19.23;;;16.90;77.20;;;;;;5051261;29;20041;-73
2021/07/22 00:11:29;;;;;;;21.42;19.33;;;16.90;77.30;;;;;;5049861;29;20077;-72
2021/07/22 00:14:02;;;;;;;21.30;19.02;;;16.90;77.90;;;;;;5039297;29;20049;-73
2021/07/22 00:16:34;;;;;;;21.20;18.70;;;16.90;76.60;;;;;;5034833;29;20056;-72
2021/07/22 00:19:06;;;;;;;20.95;18.83;;;16.90;76.60;;;;;;5051062;29;20045;-71
2021/07/22 00:21:38;;;;;;;21.48;19.17;;;16.90;76.60;;;;;;5034269;29;20143;-71
2021/07/22 00:24:10;;;;;;;20.67;18.67;;;16.90;77.70;;;;;;5051117;29;20076;-71
2021/07/22 00:26:42;;;;;;;20.95;18.77;;;16.90;77.40;;;;;;5050844;29;20123;-71
2021/07/22 00:29:14;;;;;;;20.00;17.90;;;16.90;77.00;;;;;;5048580;29;20056;-71
2021/07/22 00:31:46;;;;;;;19.77;17.88;;;16.90;77.20;;;;;;5049015;29;20201;-70
2021/07/22 00:34:18;;;;;;;20.42;18.45;;;16.70;77.90;;;;;;5052310;29;20045;-70
2021/07/22 00:36:50;;;;;;;20.63;18.52;;;16.60;78.10;;;;;;5034642;29;20459;-70
2021/07/22 00:39:22;;;;;;;21.48;19.27;;;16.60;78.20;;;;;;5049542;29;20043;-70
2021/07/22 00:41:57;;;;;;;20.95;18.85;;;16.60;78.10;;;;;;5048991;29;20412;-71
2021/07/22 00:44:28;;;;;;;20.98;18.85;;;16.60;78.20;;;;;;5052308;29;20218;-72
2021/07/22 00:47:01;;;;;;;21.10;19.00;;;16.70;78.30;;;;;;5042343;29;20053;-70
2021/07/22 00:49:33;;;;;;;19.95;18.05;;;16.60;78.60;;;;;;5049431;29;20100;-70
2021/07/22 00:52:06;;;;;;;19.58;17.50;;;16.60;78.30;;;;;;5035132;29;20052;-70
2021/07/22 00:54:39;;;;;;;20.17;18.17;;;16.60;78.70;;;;;;5032925;29;20475;-70
2021/07/22 00:57:12;;;;;;;20.67;18.60;;;16.50;78.20;;;;;;5034741;29;20527;-70
2021/07/22 00:59:46;;;;;;;21.20;19.10;;;16.60;78.20;;;;;;5041603;29;20037;-69
2021/07/22 01:02:18;;;;;;;23.13;19.27;;;16.60;77.80;;;;;;5051722;29;20049;-69
2021/07/22 01:04:51;;;;;;;19.98;18.05;;;16.50;78.40;;;;;;5049947;29;20041;-70
2021/07/22 01:07:23;;;;;;;20.52;18.63;;;16.50;79.10;;;;;;5052054;29;20040;-70
2021/07/22 01:09:55;;;;;;;24.48;20.17;;;16.50;78.30;;;;;;5048637;29;20531;-69
2021/07/22 01:12:27;;;;;;;20.73;18.63;;;16.50;79.50;;;;;;5052258;29;20524;-70
2021/07/22 01:14:59;;;;;;;22.85;20.50;;;16.40;78.30;;;;;;5045490;29;20116;-71
2021/07/22 01:17:43;;;;;;;21.95;19.08;;;16.40;78.20;;;;;;5050209;29;20127;-69
2021/07/22 01:20:20;;;;;;;21.42;19.23;;;16.40;79.70;;;;;;5048940;29;20033;-71
2021/07/22 01:22:56;;;;;;;19.65;17.75;;;16.40;78.90;;;;;;5040237;29;20128;-70
2021/07/22 01:25:31;;;;;;;20.00;18.00;;;16.40;78.70;;;;;;5031288;29;20040;-70
2021/07/22 01:28:04;;;;;;;23.90;19.23;;;16.40;77.90;;;;;;5045821;29;20467;-70
2021/07/22 01:30:36;;;;;;;20.05;18.05;;;16.40;77.90;;;;;;5049690;29;20135;-71
2021/07/22 01:33:08;;;;;;;19.58;17.58;;;16.40;77.90;;;;;;5038576;29;20049;-70
2021/07/22 01:35:41;;;;;;;19.75;17.52;;;16.40;78.30;;;;;;5052480;29;20068;-69
2021/07/22 01:38:14;;;;;;;19.52;17.63;;;16.40;78.60;;;;;;5048128;29;20505;-70
2021/07/22 01:40:46;;;;;;;24.20;18.30;;;16.30;78.90;;;;;;5047723;29;20043;-70
2021/07/22 01:43:19;;;;;;;21.45;18.65;;;16.30;78.80;;;;;;5048108;29;20063;-70
2021/07/22 01:45:56;;;;;;;20.98;17.83;;;16.30;79.20;;;;;;5032571;29;20073;-70
2021/07/22 01:48:28;;;;;;;19.92;17.95;;;16.10;79.10;;;;;;5046422;29;20063;-69
2021/07/22 01:51:01;;;;;;;19.92;17.75;;;16.10;79.70;;;;;;5027600;29;20057;-70
2021/07/22 01:53:33;;;;;;;19.95;17.95;;;16.10;79.30;;;;;;5042866;29;20045;-69
2021/07/22 01:56:05;;;;;;;20.58;18.45;;;16.00;79.70;;;;;;5029769;29;20512;-69
2021/07/22 01:58:37;;;;;;;19.23;17.45;;;15.90;80.60;;;;;;5046464;29;20040;-68
2021/07/22 02:01:10;;;;;;;20.02;17.98;;;15.80;80.40;;;;;;5030305;29;20048;-69
2021/07/22 02:03:44;;;;;;;20.38;18.38;;;15.90;80.10;;;;;;5046967;29;20135;-71
2021/07/22 02:06:16;;;;;;;21.25;19.10;;;15.90;80.00;;;;;;5050443;29;20061;-70
2021/07/22 02:08:54;;;;;;;21.20;19.05;;;15.90;79.90;;;;;;5036689;29;20124;-70
2021/07/22 02:11:26;;;;;;;20.20;18.10;;;16.00;79.70;;;;;;5048672;29;20044;-69
2021/07/22 02:13:59;;;;;;;21.15;18.67;;;16.00;79.40;;;;;;5048164;29;20044;-68
2021/07/22 02:16:31;;;;;;;22.35;18.40;;;16.00;79.50;;;;;;5017791;29;20125;-69
2021/07/22 02:19:04;;;;;;;20.83;18.83;;;15.90;79.60;;;;;;5046655;29;20095;-70
2021/07/22 02:21:38;;;;;;;21.13;19.08;;;15.90;79.80;;;;;;5031922;29;20037;-69
2021/07/22 02:24:12;;;;;;;20.80;18.60;;;15.90;79.50;;;;;;5049030;29;20671;-70
2021/07/22 02:27:01;;;;;;;20.30;17.85;;;15.90;79.10;;;;;;5016244;29;20103;-70
2021/07/22 02:29:36;;;;;;;20.30;18.30;;;15.90;79.00;;;;;;5009480;29;20376;-70
2021/07/22 02:32:08;;;;;;;20.05;17.95;;;15.80;79.10;;;;;;5050830;29;20041;-70
2021/07/22 02:34:40;;;;;;;20.73;18.52;;;15.90;79.00;;;;;;5034485;29;20105;-71
2021/07/22 02:37:31;;;;;;;21.25;17.73;;;15.80;79.40;;;;;;5033819;29;20053;-70
2021/07/22 02:40:14;;;;;;;19.60;17.60;;;15.80;79.80;;;;;;5045088;29;20053;-69
2021/07/22 02:42:46;;;;;;;22.88;19.10;;;15.70;79.80;;;;;;5032434;29;20056;-70
2021/07/22 02:45:22;;;;;;;21.30;19.20;;;15.70;79.90;;;;;;5033484;29;20072;-70
2021/07/22 02:47:54;;;;;;;20.52;18.52;;;15.60;80.10;;;;;;5032869;29;20044;-70
2021/07/22 02:50:26;;;;;;;20.20;18.10;;;15.60;80.80;;;;;;5045574;29;20053;-70
2021/07/22 02:53:06;;;;;;;20.85;18.65;;;15.60;80.10;;;;;;5035653;29;20076;-72
2021/07/22 02:55:59;;;;;;;20.10;18.05;;;15.60;80.30;;;;;;5023786;29;20045;-70
2021/07/22 02:58:31;;;;;;;20.38;18.35;;;15.50;80.40;;;;;;5050310;29;20447;-71
2021/07/22 03:01:09;;;;;;;21.13;18.55;;;15.50;80.30;;;;;;5045377;29;20511;-70
2021/07/22 03:03:41;;;;;;;19.55;17.58;;;15.50;80.30;;;;;;5050705;29;20045;-70
2021/07/22 03:06:16;;;;;;;21.17;18.95;;;15.50;79.90;;;;;;5024101;29;20051;-71
2021/07/22 03:08:56;;;;;;;21.10;18.90;;;15.40;80.10;;;;;;5045640;29;20076;-70
2021/07/22 03:11:29;;;;;;;20.55;18.42;;;15.50;80.00;;;;;;5031136;29;20056;-71
2021/07/22 03:14:04;;;;;;;20.48;18.42;;;15.40;80.10;;;;;;5046183;29;20528;-70
2021/07/22 03:16:37;;;;;;;21.92;18.38;;;15.30;81.30;;;;;;5031290;29;20049;-72
2021/07/22 03:19:20;;;;;;;20.13;18.02;;;15.30;80.70;;;;;;5046588;29;20415;-72
2021/07/22 03:22:04;;;;;;;19.33;17.33;;;15.40;80.00;;;;;;5035742;29;20049;-70
2021/07/22 03:24:51;;;;;;;20.05;17.95;;;15.40;80.30;;;;;;5047942;29;20782;-70
2021/07/22 03:27:59;;;;;;;20.70;18.60;;;15.40;79.80;;;;;;5032678;29;20084;-71
2021/07/22 03:30:58;;;;;;;20.35;18.17;;;15.40;80.00;;;;;;5042324;29;20124;-70
2021/07/22 03:33:48;;;;;;;21.20;19.00;;;15.40;79.40;;;;;;5033775;29;20048;-71
2021/07/22 03:36:22;;;;;;;19.77;17.67;;;15.30;79.90;;;;;;5028647;29;20049;-70
2021/07/22 03:39:17;;;;;;;20.00;17.95;;;15.30;80.00;;;;;;5049860;29;20364;-71
2021/07/22 03:41:49;;;;;;;19.92;17.98;;;15.20;79.70;;;;;;5051566;29;20048;-70
2021/07/22 03:44:38;;;;;;;20.15;18.15;;;15.20;80.50;;;;;;5037835;29;20486;-69
2021/07/22 03:47:17;;;;;;;19.73;17.63;;;15.20;80.70;;;;;;5035550;29;20068;-70
2021/07/22 03:49:53;;;;;;;19.27;17.27;;;15.20;80.40;;;;;;5034640;29;20144;-69
2021/07/22 03:52:33;;;;;;;19.83;17.70;;;15.20;80.70;;;;;;5050519;29;20059;-70
2021/07/22 03:55:06;;;;;;;20.20;16.92;;;15.20;80.50;;;;;;5042213;29;20076;-68
2021/07/22 03:57:57;;;;;;;19.65;17.63;;;15.10;80.70;;;;;;5054106;29;20045;-69
2021/07/22 04:00:31;;;;;;;20.00;18.00;;;15.10;80.80;;;;;;5033065;29;20044;-69
2021/07/22 04:03:10;;;;;;;18.70;16.80;;;15.00;80.50;;;;;;5049133;29;20128;-71
2021/07/22 04:05:44;;;;;;;19.38;17.48;;;15.10;80.70;;;;;;5048809;29;20051;-70
2021/07/22 04:08:17;;;;;;;19.40;17.27;;;15.10;80.70;;;;;;5051366;29;20051;-70
2021/07/22 04:11:01;;;;;;;20.05;17.95;;;15.10;80.10;;;;;;5046836;29;20517;-70
2021/07/22 04:13:45;;;;;;;19.55;17.42;;;15.10;79.90;;;;;;5039419;29;20052;-70
2021/07/22 04:16:37;;;;;;;20.05;17.02;;;15.10;80.20;;;;;;5034789;29;20041;-71
2021/07/22 04:19:18;;;;;;;19.92;17.92;;;15.00;81.20;;;;;;5029462;29;20227;-70
2021/07/22 04:22:15;;;;;;;21.15;18.95;;;15.00;81.50;;;;;;5032672;29;20045;-71
2021/07/22 04:24:54;;;;;;;19.10;17.17;;;15.00;80.80;;;;;;5032893;29;20049;-70
2021/07/22 04:27:50;;;;;;;18.60;16.70;;;15.00;80.70;;;;;;5046910;29;20744;-71
2021/07/22 04:30:28;;;;;;;17.65;15.93;;;15.10;80.80;;;;;;5032018;29;20519;-70
2021/07/22 04:33:15;;;;;;;19.77;17.67;;;15.10;81.30;;;;;;5033615;29;20431;-70
2021/07/22 04:35:58;;;;;;;18.85;16.85;;;15.10;81.00;;;;;;5048177;29;20097;-70
2021/07/22 04:38:56;;;;;;;20.30;17.48;;;15.10;81.20;;;;;;5053614;29;20093;-72
2021/07/22 04:41:46;;;;;;;19.10;17.00;;;15.10;81.00;;;;;;5050883;29;20173;-70
2021/07/22 04:44:44;;;;;;;18.02;16.13;;;15.10;80.80;;;;;;5036015;29;20061;-71
2021/07/22 04:47:34;;;;;;;19.65;17.52;;;15.10;80.60;;;;;;5050801;29;20049;-70
2021/07/22 04:50:18;;;;;;;18.73;16.83;;;15.10;80.50;;;;;;5031822;29;20072;-70
2021/07/22 04:53:13;;;;;;;19.17;17.15;;;15.20;81.00;;;;;;5048415;29;20217;-70
2021/07/22 04:55:52;;;;;;;18.48;16.58;;;15.30;80.20;;;;;;5032234;29;20140;-70
2021/07/22 04:58:26;;;;;;;18.80;16.90;;;15.50;80.60;;;;;;5018987;29;20053;-69
2021/07/22 05:00:59;;;;;;;19.38;16.75;;;15.50;80.30;;;;;;5048791;29;20120;-70
2021/07/22 05:03:32;;;;;;;19.70;16.98;;;15.60;80.20;;;;;;5050115;29;20048;-70
2021/07/22 05:06:07;;;;;;;19.10;16.38;;;15.70;81.60;;;;;;5032074;29;20063;-70
2021/07/22 05:08:58;;;;;;;18.67;16.67;;;15.80;81.40;;;;;;5049164;29;20085;-71
2021/07/22 05:11:50;;;;;;;19.10;17.13;;;15.80;81.00;;;;;;5041862;29;20045;-70
2021/07/22 05:14:40;;;;;;;19.25;17.15;;;16.00;81.10;;;;;;5050514;29;20171;-70
2021/07/22 05:17:25;;;;;;;19.48;17.17;;;16.00;80.80;;;;;;5033498;29;20338;-70
2021/07/22 05:20:23;;;;;;;24.55;17.35;;;16.20;80.90;;;;;;5052303;29;20048;-70
2021/07/22 05:23:08;;;;;;;19.80;17.73;;;16.30;80.80;;;;;;5051276;29;20052;-70
2021/07/22 05:25:57;;;;;;;19.13;17.05;;;16.40;80.20;;;;;;5033149;29;20047;-70
2021/07/22 05:28:40;;;;;;;19.48;17.52;;;16.50;80.60;;;;;;5049971;29;20571;-70
2021/07/22 05:31:17;;;;;;;21.08;18.10;;;16.60;80.00;;;;;;5036722;29;20096;-70
2021/07/22 05:34:07;;;;;;;20.08;17.98;;;16.70;80.20;;;;;;5031867;29;20486;-71
2021/07/22 05:36:59;;;;;;;19.92;17.77;;;16.60;81.00;;;;;;5030479;29;20049;-69
2021/07/22 05:39:39;;;;;;;21.38;18.75;;;16.70;82.30;;;;;;5046674;29;20460;-70
2021/07/22 05:42:11;;;;;;;20.42;18.02;;;16.80;82.30;;;;;;5030446;29;20080;-70
2021/07/22 05:44:43;;;;;;;19.38;17.40;;;16.90;82.40;;;;;;5044984;29;20056;-70
2021/07/22 05:47:15;;;;;;;20.60;18.13;;;17.00;81.90;;;;;;5045149;29;20136;-70
2021/07/22 05:49:47;;;;;;;20.25;18.08;;;17.20;82.10;;;;;;5046980;29;20053;-70
2021/07/22 05:52:19;;;;;;;20.58;18.48;;;17.30;81.90;;;;;;5047217;29;20076;-70
2021/07/22 05:54:52;;;;;;;22.20;18.27;;;17.40;81.60;;;;;;5046666;29;20045;-71
2021/07/22 05:57:24;;;;;;;19.52;17.60;;;17.50;80.90;;;;;;5048302;29;20885;-71
2021/07/22 05:59:56;;;;;;;19.63;17.52;;;17.70;80.60;;;;;;5030833;29;20041;-71
2021/07/22 06:02:28;;;;;;;19.35;17.35;;;17.80;80.10;;;;;;5048579;29;20115;-71
2021/07/22 06:05:01;;;;;;;19.77;17.83;;;17.90;79.10;;;;;;5046406;29;20049;-72
2021/07/22 06:07:33;;;;;;;19.65;17.70;;;18.10;78.90;;;;;;5045319;29;20073;-71
2021/07/22 06:10:05;;;;;;;20.27;18.25;;;18.20;78.50;;;;;;5049818;29;20053;-70
2021/07/22 06:12:37;;;;;;;20.10;18.08;;;18.30;78.70;;;;;;5031733;29;20072;-71
2021/07/22 06:15:12;;;;;;;20.33;18.23;;;18.40;78.40;;;;;;5047796;29;20104;-72
2021/07/22 06:17:44;;;;;;;19.67;17.48;;;18.50;78.30;;;;;;5046993;29;20108;-71
2021/07/22 06:20:17;;;;;;;21.10;18.70;;;18.70;78.20;;;;;;5046017;29;20128;-72
2021/07/22 06:22:48;;;;;;;21.23;18.60;;;18.80;77.40;;;;;;5049165;29;20113;-71
2021/07/22 06:25:20;;;;;;;20.10;18.10;;;18.90;78.00;;;;;;5048689;29;20076;-71
2021/07/22 06:27:52;;;;;;;22.30;20.05;;;18.90;78.50;;;;;;5050786;29;20128;-72
2021/07/22 06:30:25;;;;;;;20.25;18.27;;;18.90;78.00;;;;;;5030634;29;20061;-71
2021/07/22 06:32:57;;;;;;;21.65;19.38;;;19.10;77.50;;;;;;5049387;29;20041;-71
2021/07/22 06:35:29;;;;;;;20.63;18.52;;;19.20;76.90;;;;;;5045795;29;20108;-71
2021/07/22 06:38:01;;;;;;;20.83;18.77;;;19.40;76.40;;;;;;5050080;29;20744;-71
2021/07/22 06:40:36;;;;;;;21.35;19.27;;;19.50;76.50;;;;;;5031378;29;20045;-71
2021/07/22 06:43:12;;;;;;;20.90;18.75;;;19.60;76.50;;;;;;5047467;29;20140;-71
2021/07/22 06:45:44;;;;;;;19.92;17.77;;;19.70;74.40;;;;;;5048719;29;20045;-71
2021/07/22 06:48:16;;;;;;;21.00;19.00;;;19.80;74.60;;;;;;5046567;29;20052;-71
2021/07/22 06:50:49;;;;;;;21.45;19.33;;;19.90;72.90;;;;;;5029331;29;20052;-71
2021/07/22 06:53:21;;;;;;;20.83;18.83;;;20.00;70.40;;;;;;5045452;29;20520;-71
2021/07/22 06:55:57;;;;;;;19.35;17.17;;;20.20;71.80;;;;;;5028981;29;20430;-71
2021/07/22 06:58:29;;;;;;;22.52;20.33;;;20.30;72.50;;;;;;5039515;29;20597;-71
2021/07/22 07:01:01;;;;;;;20.88;18.77;;;20.40;73.20;;;;;;5048161;29;20070;-71
2021/07/22 07:03:33;;;;;;;21.60;19.60;;;20.50;72.50;;;;;;5047046;29;20053;-72
2021/07/22 07:06:04;;;;;;;21.88;19.65;;;20.60;71.30;;;;;;5046820;29;20532;-71
2021/07/22 07:08:36;;;;;;;22.05;19.85;;;20.70;70.50;;;;;;5046209;29;20451;-71
2021/07/22 07:11:08;;;;;;;21.40;19.30;;;20.80;71.40;;;;;;5037584;29;20141;-70
2021/07/22 07:13:40;;;;;;;21.55;19.45;;;20.90;70.90;;;;;;5050331;29;20080;-71
2021/07/22 07:16:12;;;;;;;22.45;20.27;;;21.00;68.70;;;;;;5051694;29;20128;-71
2021/07/22 07:18:44;;;;;;;21.52;19.38;;;21.20;70.10;;;;;;5051373;29;20128;-70
2021/07/22 07:21:19;;;;;;;22.02;19.70;;;21.20;68.20;;;;;;5050836;29;20153;-72
2021/07/22 07:23:51;;;;;;;22.20;19.98;;;21.40;67.30;;;;;;5051995;29;20452;-71
2021/07/22 07:26:23;;;;;;;21.83;19.67;;;21.40;66.30;;;;;;5050065;29;20585;-71
2021/07/22 07:28:55;;;;;;;21.27;19.20;;;21.60;65.90;;;;;;5053524;29;20045;-71
2021/07/22 07:31:27;;;;;;;20.60;18.52;;;21.70;65.50;;;;;;5050015;29;20068;-71
2021/07/22 07:33:59;;;;;;;20.30;18.50;;;21.70;65.30;;;;;;5052473;29;20127;-71
2021/07/22 07:36:31;;;;;;;22.08;19.55;;;21.80;63.10;;;;;;5048537;29;20045;-71
2021/07/22 07:39:03;;;;;;;21.05;18.83;;;21.80;62.70;;;;;;5034147;29;20080;-71
2021/07/22 07:41:35;;;;;;;20.25;18.35;;;21.90;61.80;;;;;;5048929;29;20056;-70
2021/07/22 07:44:07;;;;;;;21.48;18.92;;;22.00;63.50;;;;;;5051368;29;20060;-70
2021/07/22 07:46:39;;;;;;;20.92;18.90;;;22.10;65.00;;;;;;5052221;29;20048;-71
2021/07/22 07:49:11;;;;;;;20.83;18.65;;;22.20;63.90;;;;;;5048921;29;20076;-71
2021/07/22 07:51:43;;;;;;;19.92;18.13;;;22.20;63.30;;;;;;5049872;29;20052;-70
2021/07/22 07:54:21;;;;;;;20.67;18.58;;;22.30;62.00;;;;;;5053499;29;20384;-70
2021/07/22 07:56:52;;;;;;;20.67;18.67;;;22.40;63.80;;;;;;5033339;29;20120;-71
2021/07/22 07:59:24;;;;;;;21.50;19.30;;;22.50;62.50;;;;;;5049279;29;20452;-71
2021/07/22 08:01:56;;;;;;;22.17;20.17;;;22.60;62.80;;;;;;5049062;29;20127;-71
2021/07/22 08:04:28;;;;;;;22.13;20.08;;;22.60;63.50;;;;;;5032469;29;20511;-73
2021/07/22 08:07:00;;;;;;;22.35;20.25;;;22.70;64.70;;;;;;5050197;29;20076;-71
2021/07/22 08:09:33;;;;;;;22.60;20.50;;;22.80;63.70;;;;;;5050726;29;20125;-73
2021/07/22 08:12:05;;;;;;;23.23;20.60;;;22.80;63.60;;;;;;5049177;29;20052;-72
2021/07/22 08:14:37;;;;;;;22.17;20.13;;;22.90;63.80;;;;;;5049523;29;20109;-71
2021/07/22 08:17:14;;;;;;;23.52;20.98;;;22.90;64.00;;;;;;5048331;29;20048;-72
2021/07/22 08:19:46;;;;;;;22.73;20.65;;;23.00;65.00;;;;;;5049329;29;20136;-71
2021/07/22 08:22:18;;;;;;;24.27;21.88;;;23.20;64.70;;;;;;5049905;29;20053;-72
2021/07/22 08:24:51;;;;;;;22.17;20.08;;;23.30;65.10;;;;;;5046493;29;20064;-72
2021/07/22 08:27:25;;;;;;;23.73;21.52;;;23.30;65.20;;;;;;5049488;29;20106;-72
2021/07/22 08:29:58;;;;;;;23.30;21.02;;;23.50;65.50;;;;;;5050089;29;20924;-72
2021/07/22 08:32:29;;;;;;;23.23;21.02;;;23.50;64.70;;;;;;5051304;29;20450;-72
2021/07/22 08:35:01;;;;;;;22.85;20.60;;;23.60;64.80;;;;;;5052981;29;20484;-71
2021/07/22 08:37:34;;;;;;;22.67;20.48;;;23.70;64.60;;;;;;5049768;29;20052;-72
2021/07/22 08:40:13;;;;;;;23.17;21.17;;;23.70;63.90;;;;;;5049809;29;20484;-72
2021/07/22 08:42:47;;;;;;;24.15;21.85;;;23.70;62.50;;;;;;5042101;29;20136;-72
2021/07/22 08:45:19;;;;;;;24.05;21.60;;;23.90;63.70;;;;;;5037676;29;20063;-72
2021/07/22 08:47:51;;;;;;;23.20;21.10;;;23.90;64.00;;;;;;5050090;29;20693;-72
2021/07/22 08:50:23;;;;;;;23.33;21.15;;;24.00;61.50;;;;;;5047407;29;20390;-71
2021/07/22 08:52:55;;;;;;;23.98;21.80;;;24.10;62.80;;;;;;5050817;29;20049;-73
2021/07/22 08:55:27;;;;;;;23.10;20.95;;;24.20;62.20;;;;;;5052231;29;20056;-71
2021/07/22 08:58:01;;;;;;;25.05;22.63;;;24.20;61.40;;;;;;5051085;29;20048;-71
2021/07/22 09:00:33;;;;;;;23.00;20.90;;;24.30;62.70;;;;;;5038859;29;20076;-72
2021/07/22 09:03:11;;;;;;;23.73;21.13;;;24.30;62.30;;;;;;5050438;29;20072;-72
2021/07/22 09:05:43;;;;;;;24.15;21.73;;;24.40;61.90;;;;;;5048235;29;20049;-72
2021/07/22 09:08:15;;;;;;;23.13;21.13;;;24.50;59.80;;;;;;5047665;29;20060;-72
2021/07/22 09:11:08;;;;;;;23.05;20.85;;;24.50;60.90;;;;;;5047626;29;20117;-73
2021/07/22 09:13:40;;;;;;;24.38;22.02;;;24.60;60.80;;;;;;5047350;29;20072;-72
2021/07/22 09:16:12;;;;;;;24.38;22.08;;;24.70;59.90;;;;;;5047552;29;20055;-72
2021/07/22 09:18:44;;;;;;;24.13;21.83;;;24.70;60.50;;;;;;5031035;29;20080;-73
2021/07/22 09:21:22;;;;;;;25.55;23.05;;;24.80;60.80;;;;;;5046383;29;20069;-73
2021/07/22 09:24:11;;;;;;;24.13;22.02;;;24.90;60.90;;;;;;5048671;29;20101;-72
2021/07/22 09:26:46;;;;;;;25.30;22.92;;;25.00;62.20;;;;;;5045511;29;20076;-72
2021/07/22 09:29:19;;;;;;;24.50;22.17;;;25.10;59.80;;;;;;5029598;29;20076;-71
2021/07/22 09:32:03;;;;;;;25.63;23.02;;;25.20;59.50;;;;;;5048891;29;20143;-72
2021/07/22 09:34:35;;;;;;;25.00;22.60;;;25.20;60.40;;;;;;5037689;29;20096;-71
2021/07/22 09:37:08;;;;;;;24.55;22.13;;;25.20;59.90;;;;;;5045584;29;20080;-72
2021/07/22 09:39:40;;;;;;;24.40;22.20;;;25.30;59.60;;;;;;5049193;29;20092;-72
2021/07/22 09:42:12;;;;;;;24.85;22.65;;;25.30;59.80;;;;;;5051344;29;20072;-72
2021/07/22 09:44:45;;;;;;;25.80;23.20;;;25.40;60.40;;;;;;5041707;29;20045;-73
2021/07/22 09:47:27;;;;;;;24.42;22.13;;;25.50;60.10;;;;;;5034274;29;20041;-72
2021/07/22 09:50:12;;;;;;;25.33;23.00;;;25.50;58.60;;;;;;5047013;29;20096;-72
2021/07/22 09:52:45;;;;;;;24.45;22.08;;;25.50;58.00;;;;;;5032800;29;20155;-72
2021/07/22 09:55:30;;;;;;;24.40;22.10;;;25.60;58.70;;;;;;5049380;29;20052;-72
2021/07/22 09:58:10;;;;;;;25.13;22.70;;;25.60;58.40;;;;;;5046110;29;20061;-73
2021/07/22 10:00:44;;;;;;;;;;;25.70;58.10;;;;;;5049132;29;20127;-72
2021/07/22 10:03:21;;;;;;;24.50;22.30;;;25.80;58.70;;;;;;5047309;29;20954;-72
2021/07/22 10:06:06;;;;;;;24.93;22.73;;;25.90;57.00;;;;;;5050205;29;20045;-73
2021/07/22 10:08:39;;;;;;;24.35;22.35;;;25.80;54.50;;;;;;5048607;29;20510;-71
2021/07/22 10:11:11;;;;;;;25.10;22.98;;;25.80;55.30;;;;;;5048236;29;20049;-71
2021/07/22 10:13:47;;;;;;;24.83;22.40;;;25.90;55.40;;;;;;5031139;29;20136;-72
2021/07/22 10:16:22;;;;;;;24.40;22.17;;;25.90;54.40;;;;;;5048559;29;20550;-71
2021/07/22 10:18:59;;;;;;;23.98;21.55;;;26.00;53.50;;;;;;5038732;29;20043;-72
2021/07/22 10:21:31;;;;;;;24.73;22.42;;;26.10;53.80;;;;;;5031429;29;20400;-72
2021/07/22 10:24:05;;;;;;;23.92;21.73;;;26.20;52.90;;;;;;5031531;29;20105;-72
2021/07/22 10:26:41;;;;;;;24.08;21.88;;;26.20;52.90;;;;;;5049886;29;20419;-72
2021/07/22 10:29:13;;;;;;;24.48;22.38;;;26.20;52.60;;;;;;5029742;29;20075;-72
2021/07/22 10:31:47;;;;;;;24.45;22.35;;;26.10;50.90;;;;;;5035655;29;20053;-72
2021/07/22 10:34:19;;;;;;;23.80;21.77;;;26.20;51.90;;;;;;5050859;29;20044;-72
2021/07/22 10:36:52;;;;;;;23.42;21.42;;;26.10;50.90;;;;;;5033802;29;20507;-72
2021/07/22 10:40:05;;;;;;;24.80;22.55;;;26.20;50.20;;;;;;5044226;29;20056;-72
2021/07/22 10:42:48;;;;;;;23.50;21.45;;;26.10;51.40;;;;;;5048580;29;20419;-71
2021/07/22 10:45:20;;;;;;;23.73;21.73;;;26.30;53.50;;;;;;5047051;29;20037;-71
2021/07/22 10:47:59;;;;;;;24.30;22.17;;;26.30;49.90;;;;;;5048397;29;20040;-71
2021/07/22 10:50:37;;;;;;;24.15;22.15;;;26.30;49.70;;;;;;5046219;29;20045;-71
2021/07/22 10:53:11;;;;;;;25.00;22.55;;;26.40;49.70;;;;;;5046575;29;20051;-71
2021/07/22 10:55:43;;;;;;;24.85;22.70;;;26.40;49.50;;;;;;5046805;29;20053;-71
2021/07/22 10:58:24;;;;;;;24.45;22.35;;;26.40;49.20;;;;;;5046796;29;20072;-71
2021/07/22 11:00:57;;;;;;;25.10;22.70;;;26.30;50.00;;;;;;5044559;29;20105;-72
2021/07/22 11:03:36;;;;;;;24.60;22.27;;;26.30;45.70;;;;;;5048664;29;20055;-71
2021/07/22 11:06:10;;;;;;;24.27;22.17;;;26.30;49.90;;;;;;5034389;29;20075;-71
2021/07/22 11:08:44;;;;;;;25.33;23.02;;;26.40;50.20;;;;;;5045119;29;20057;-72
2021/07/22 11:11:16;;;;;;;24.75;22.55;;;26.50;47.90;;;;;;5025716;29;20172;-73
2021/07/22 11:13:50;;;;;;;24.20;22.10;;;26.70;48.80;;;;;;5036398;29;20041;-72
2021/07/22 11:16:29;;;;;;;24.50;22.40;;;26.70;45.50;;;;;;5046108;29;20052;-72
2021/07/22 11:19:11;;;;;;;25.58;23.27;;;26.70;45.70;;;;;;5048933;29;20045;-72
2021/07/22 11:21:50;;;;;;;24.65;22.55;;;26.80;47.70;;;;;;5044778;29;20076;-71
2021/07/22 11:24:26;;;;;;;26.40;24.13;;;26.90;48.20;;;;;;5017902;29;20072;-72
2021/07/22 11:27:00;;;;;;;25.17;23.10;;;27.10;46.20;;;;;;5047556;29;20052;-72
2021/07/22 11:29:32;;;;;;;24.38;22.38;;;27.20;47.10;;;;;;5032820;29;20108;-72
2021/07/22 11:32:04;;;;;;;25.08;22.90;;;27.30;46.70;;;;;;5044942;29;20183;-72
2021/07/22 11:34:39;;;;;;;25.92;23.63;;;27.30;44.80;;;;;;5050383;29;20136;-72
2021/07/22 11:37:17;;;;;;;24.55;22.55;;;27.40;44.80;;;;;;5037084;29;20120;-71
2021/07/22 11:39:49;;;;;;;25.48;23.33;;;27.50;45.50;;;;;;5033516;29;20045;-71
2021/07/22 11:42:21;;;;;;;25.13;22.92;;;27.60;45.30;;;;;;5049053;29;20080;-71
2021/07/22 11:45:06;;;;;;;25.83;23.42;;;27.70;45.50;;;;;;5046230;29;20044;-71
2021/07/22 11:47:38;;;;;;;26.05;23.70;;;27.80;45.40;;;;;;5032894;29;20093;-72
2021/07/22 11:50:10;;;;;;;25.67;23.48;;;27.90;45.30;;;;;;5022724;29;20100;-71
2021/07/22 11:52:42;;;;;;;25.25;23.25;;;27.90;44.80;;;;;;5047501;29;20396;-72
2021/07/22 11:55:14;;;;;;;25.40;23.25;;;28.00;44.90;;;;;;5046988;29;20131;-73
2021/07/22 11:57:46;;;;;;;25.27;23.17;;;28.00;43.70;;;;;;5049439;29;20045;-73
2021/07/22 12:00:22;;;;;;;25.73;23.52;;;28.00;44.10;;;;;;5045831;29;20121;-71
2021/07/22 12:02:55;;;;;;;25.50;23.30;;;28.20;43.20;;;;;;5052176;29;20117;-72
2021/07/22 12:05:27;;;;;;;25.02;23.05;;;28.30;43.60;;;;;;5049544;29;20104;-72
2021/07/22 12:08:20;;;;;;;25.95;23.85;;;28.30;44.60;;;;;;5036271;29;20116;-72
2021/07/22 12:11:01;;;;;;;25.25;23.15;;;28.30;44.90;;;;;;5031955;29;20061;-72
2021/07/22 12:13:49;;;;;;;24.75;22.67;;;28.30;44.00;;;;;;5053176;29;20045;-72
2021/07/22 12:16:24;;;;;;;25.63;23.48;;;28.20;45.30;;;;;;5047996;29;20056;-72
2021/07/22 12:18:56;;;;;;;25.48;23.27;;;28.00;44.80;;;;;;5040661;29;20037;-73
2021/07/22 12:21:29;;;;;;;24.88;22.77;;;28.10;46.30;;;;;;5051604;29;20048;-72
2021/07/22 12:24:18;;;;;;;26.05;23.95;;;27.90;45.40;;;;;;5031814;29;20084;-72
2021/07/22 12:26:50;;;;;;;26.20;23.88;;;28.00;45.10;;;;;;5049128;29;20044;-72
2021/07/22 12:29:21;;;;;;;25.50;23.40;;;28.10;45.60;;;;;;5031596;29;20084;-72
2021/07/22 12:31:53;;;;;;;25.15;23.02;;;28.10;43.70;;;;;;5047758;29;20104;-72
2021/07/22 12:34:36;;;;;;;25.60;23.25;;;28.00;44.70;;;;;;5048380;29;20045;-73
2021/07/22 12:37:08;;;;;;;25.58;23.48;;;28.10;44.40;;;;;;5051632;29;20051;-72
2021/07/22 12:39:40;;;;;;;25.63;23.25;;;28.10;43.80;;;;;;5046678;29;20055;-72
2021/07/22 12:42:14;;;;;;;25.45;23.35;;;28.10;43.40;;;;;;5048806;29;20460;-71
2021/07/22 12:44:47;;;;;;;26.27;24.08;;;28.10;44.50;;;;;;5048309;29;20037;-72
2021/07/22 12:47:33;;;;;;;25.35;23.25;;;28.20;45.20;;;;;;5039191;29;20176;-73
2021/07/22 12:50:08;;;;;;;26.05;23.55;;;28.30;45.50;;;;;;5035880;29;20140;-72
2021/07/22 12:52:49;;;;;;;25.58;23.48;;;28.50;43.80;;;;;;5047250;29;20124;-72
2021/07/22 12:55:32;;;;;;;26.38;24.00;;;28.50;45.40;;;;;;5050121;29;20072;-74
2021/07/22 12:58:04;;;;;;;25.88;23.67;;;28.70;45.00;;;;;;5049728;29;20049;-73
2021/07/22 13:00:43;;;;;;;26.85;24.63;;;28.70;44.70;;;;;;5047275;29;20045;-72
2021/07/22 13:03:15;;;;;;;26.50;24.38;;;28.80;44.20;;;;;;5049042;29;20044;-72
2021/07/22 13:05:47;;;;;;;25.45;23.38;;;28.80;43.40;;;;;;5032162;29;20053;-72
2021/07/22 13:08:19;;;;;;;25.17;22.98;;;28.70;42.20;;;;;;5048781;29;20152;-72
2021/07/22 13:10:52;;;;;;;25.50;23.50;;;28.60;42.80;;;;;;5048573;29;20052;-72
2021/07/22 13:13:24;;;;;;;25.15;22.95;;;28.50;44.60;;;;;;5050018;29;20131;-71